Time;durP1;ratioP1;P1;durP2;ratioP2;P2;SDS_P1;SDS_P2;PMS_P1;PMS_P2;Temp;Humidity;BMP_temperature;BMP_pressure;BME280_temperature;BME280_humidity;BME280_pressure;Samples;Min_cycle;Max_cycle;Signal;HPM_P1;HPM_P2
2023/02/13 00:02:02;;;;;;;1.38;1.08;;;;;;;;;;5056872;28;20035;-79
2023/02/13 00:04:28;;;;;;;0.93;0.77;;;;;;;;;;5049597;28;20032;-79
2023/02/13 00:06:54;;;;;;;1.08;0.80;;;;;;;;;;5042618;28;20075;-79
2023/02/13 00:09:20;;;;;;;0.95;0.75;;;;;;;;;;5052370;28;20024;-79
2023/02/13 00:11:46;;;;;;;1.20;0.98;;;;;;;;;;5059205;28;20024;-79
2023/02/13 00:14:12;;;;;;;1.60;0.93;;;;;;;;;;5050208;28;20020;-78
2023/02/13 00:16:38;;;;;;;1.98;1.10;;;;;;;;;;5051992;28;20036;-79
2023/02/13 00:19:04;;;;;;;1.85;1.10;;;;;;;;;;5046293;28;20485;-78
2023/02/13 00:21:30;;;;;;;0.70;0.70;;;;;;;;;;5051144;28;20020;-78
2023/02/13 00:23:56;;;;;;;1.55;0.93;;;;;;;;;;5050876;28;20037;-78
2023/02/13 00:26:22;;;;;;;1.00;0.90;;;;;;;;;;5048927;28;20033;-79
2023/02/13 00:28:48;;;;;;;0.95;0.85;;;;;;;;;;5050036;28;20028;-79
2023/02/13 00:31:15;;;;;;;1.48;0.98;;;;;;;;;;5048127;28;20452;-78
2023/02/13 00:33:41;;;;;;;2.47;0.70;;;;;;;;;;5055624;28;20068;-78
2023/02/13 00:36:08;;;;;;;0.63;0.50;;;;;;;;;;5046307;28;20431;-78
2023/02/13 00:38:34;;;;;;;2.45;0.88;;;;;;;;;;5051113;28;20025;-78
2023/02/13 00:41:00;;;;;;;0.75;0.60;;;;;;;;;;5052261;28;20055;-78
2023/02/13 00:43:26;;;;;;;0.98;0.80;;;;;;;;;;5048160;28;20025;-78
2023/02/13 00:45:52;;;;;;;1.48;1.00;;;;;;;;;;5043782;28;20033;-78
2023/02/13 00:48:21;;;;;;;2.17;0.88;;;;;;;;;;5045605;28;20400;-78
2023/02/13 00:50:54;;;;;;;1.20;1.10;;;;;;;;;;5045237;28;20056;-78
2023/02/13 00:53:20;;;;;;;0.70;0.70;;;;;;;;;;5055294;28;20029;-78
2023/02/13 00:55:47;;;;;;;2.90;0.88;;;;;;;;;;5049438;28;20393;-78
2023/02/13 00:58:13;;;;;;;0.60;0.60;;;;;;;;;;5042876;28;20104;-78
2023/02/13 01:00:39;;;;;;;1.27;0.80;;;;;;;;;;5048131;28;20099;-78
2023/02/13 01:03:05;;;;;;;0.50;0.50;;;;;;;;;;5055076;28;20455;-79
2023/02/13 01:05:39;;;;;;;1.45;0.77;;;;;;;;;;5053893;28;20028;-78
2023/02/13 01:08:06;;;;;;;2.03;0.88;;;;;;;;;;5053054;28;20558;-78
2023/02/13 01:10:34;;;;;;;0.95;0.68;;;;;;;;;;5045312;28;20036;-78
2023/02/13 01:13:04;;;;;;;2.05;0.90;;;;;;;;;;5046710;28;20037;-78
2023/02/13 01:15:33;;;;;;;0.80;0.80;;;;;;;;;;5049162;28;20021;-78
2023/02/13 01:17:59;;;;;;;0.88;0.80;;;;;;;;;;5046508;28;20388;-78
2023/02/13 01:20:28;;;;;;;0.77;0.70;;;;;;;;;;5044465;28;20052;-78
2023/02/13 01:22:54;;;;;;;1.05;0.68;;;;;;;;;;5050519;28;20057;-78
2023/02/13 01:25:23;;;;;;;0.70;0.70;;;;;;;;;;5046268;28;20029;-78
2023/02/13 01:27:49;;;;;;;0.75;0.75;;;;;;;;;;5048327;28;20504;-78
2023/02/13 01:30:17;;;;;;;0.75;0.70;;;;;;;;;;5047416;28;20034;-78
2023/02/13 01:32:43;;;;;;;1.00;0.65;;;;;;;;;;5052351;28;20021;-78
2023/02/13 01:35:10;;;;;;;0.88;0.63;;;;;;;;;;5050090;28;20072;-79
2023/02/13 01:37:39;;;;;;;0.60;0.60;;;;;;;;;;5048488;28;20378;-78
2023/02/13 01:40:06;;;;;;;0.90;0.73;;;;;;;;;;5046678;28;20021;-79
2023/02/13 01:42:33;;;;;;;0.95;0.75;;;;;;;;;;5050712;28;20029;-78
2023/02/13 01:45:00;;;;;;;0.40;0.40;;;;;;;;;;5047632;28;20560;-78
2023/02/13 01:47:44;;;;;;;0.60;0.60;;;;;;;;;;5050367;28;20032;-78
2023/02/13 01:50:23;;;;;;;1.23;0.68;;;;;;;;;;5053708;28;20049;-78
2023/02/13 01:52:52;;;;;;;0.93;0.82;;;;;;;;;;5049771;28;20036;-78
2023/02/13 01:55:21;;;;;;;0.57;0.50;;;;;;;;;;5048534;28;20386;-79
2023/02/13 01:57:51;;;;;;;0.60;0.60;;;;;;;;;;5047259;28;20028;-78
2023/02/13 02:00:17;;;;;;;0.68;0.68;;;;;;;;;;5046620;28;20537;-78
2023/02/13 02:02:47;;;;;;;0.43;0.43;;;;;;;;;;5048545;28;20033;-78
2023/02/13 02:05:15;;;;;;;0.90;0.73;;;;;;;;;;5060384;28;20035;-78
2023/02/13 02:07:41;;;;;;;0.60;0.60;;;;;;;;;;5048711;28;20282;-78
2023/02/13 02:10:25;;;;;;;1.13;0.68;;;;;;;;;;5048201;28;20028;-78
2023/02/13 02:12:59;;;;;;;1.55;0.77;;;;;;;;;;5056982;28;20025;-79
2023/02/13 02:15:28;;;;;;;1.13;0.70;;;;;;;;;;5053217;28;20078;-79
2023/02/13 02:17:54;;;;;;;1.42;0.75;;;;;;;;;;5046379;28;20017;-78
2023/02/13 02:20:29;;;;;;;0.50;0.50;;;;;;;;;;5046656;28;20160;-78
2023/02/13 02:23:14;;;;;;;0.70;0.70;;;;;;;;;;5045944;28;20116;-78
2023/02/13 02:25:52;;;;;;;0.88;0.60;;;;;;;;;;5047736;28;20036;-78
2023/02/13 02:28:46;;;;;;;0.60;0.60;;;;;;;;;;5049142;28;20021;-78
2023/02/13 02:31:31;;;;;;;0.40;0.30;;;;;;;;;;5046308;28;20021;-78
2023/02/13 02:34:16;;;;;;;0.60;0.43;;;;;;;;;;5043794;28;20020;-78
2023/02/13 02:37:04;;;;;;;1.10;0.70;;;;;;;;;;5044162;28;20032;-79
2023/02/13 02:39:37;;;;;;;0.88;0.60;;;;;;;;;;5043010;28;20037;-79
2023/02/13 02:42:16;;;;;;;0.50;0.50;;;;;;;;;;5045367;28;20053;-79
2023/02/13 02:44:55;;;;;;;0.30;0.30;;;;;;;;;;5048323;28;20087;-78
2023/02/13 02:50:14;;;;;;;0.82;0.50;;;;;;;;;;5048638;28;20096;-79
2023/02/13 02:52:55;;;;;;;1.90;0.50;;;;;;;;;;5044372;28;20036;-78
2023/02/13 02:55:41;;;;;;;0.88;0.68;;;;;;;;;;5042523;28;20013;-79
2023/02/13 03:06:43;;;;;;;0.95;0.60;;;;;;;;;;5050883;28;20094;-78
2023/02/13 03:14:43;;;;;;;1.00;0.50;;;;;;;;;;5046336;28;20043;-78
2023/02/13 03:23:04;;;;;;;0.57;0.57;;;;;;;;;;5048866;28;20393;-78
2023/02/13 03:25:36;;;;;;;0.70;0.60;;;;;;;;;;5045633;28;20037;-78
2023/02/13 03:31:14;;;;;;;1.02;0.70;;;;;;;;;;5050475;28;20039;-79
2023/02/13 03:33:49;;;;;;;1.27;0.80;;;;;;;;;;5053163;28;20056;-78
2023/02/13 03:39:04;;;;;;;0.70;0.60;;;;;;;;;;5049613;28;20048;-78
2023/02/13 03:41:35;;;;;;;0.45;0.45;;;;;;;;;;5053823;28;20407;-78
2023/02/13 03:44:19;;;;;;;0.50;0.50;;;;;;;;;;5047955;28;20060;-78
2023/02/13 03:46:49;;;;;;;0.60;0.47;;;;;;;;;;5049647;28;20044;-78
2023/02/13 03:52:25;;;;;;;0.82;0.65;;;;;;;;;;5057217;28;20049;-78
2023/02/13 04:00:40;;;;;;;0.95;0.57;;;;;;;;;;5048445;28;20039;-78
2023/02/13 04:03:10;;;;;;;0.68;0.50;;;;;;;;;;5051586;28;20033;-78
2023/02/13 04:05:39;;;;;;;0.50;0.50;;;;;;;;;;5055404;28;20473;-78
2023/02/13 04:08:05;;;;;;;1.10;0.60;;;;;;;;;;5043874;28;20390;-78
2023/02/13 04:10:34;;;;;;;1.05;0.60;;;;;;;;;;5046425;28;20033;-78
2023/02/13 04:13:02;;;;;;;0.40;0.40;;;;;;;;;;5058103;28;20111;-78
2023/02/13 04:15:44;;;;;;;0.88;0.60;;;;;;;;;;5054213;28;20017;-78
2023/02/13 04:18:33;;;;;;;0.60;0.50;;;;;;;;;;5052485;28;20028;-78
2023/02/13 04:21:04;;;;;;;0.65;0.45;;;;;;;;;;5038620;28;20495;-78
2023/02/13 04:23:29;;;;;;;0.70;0.68;;;;;;;;;;5046380;28;20396;-78
2023/02/13 04:25:56;;;;;;;0.60;0.52;;;;;;;;;;5049649;28;20032;-78
2023/02/13 04:28:22;;;;;;;0.55;0.40;;;;;;;;;;5049446;28;20032;-78
2023/02/13 04:30:49;;;;;;;1.00;0.60;;;;;;;;;;5045999;28;20043;-78
2023/02/13 04:33:15;;;;;;;1.40;0.80;;;;;;;;;;5047719;28;20056;-78
2023/02/13 04:35:41;;;;;;;1.50;0.77;;;;;;;;;;5051408;28;20033;-78
2023/02/13 04:38:07;;;;;;;0.47;0.47;;;;;;;;;;5051924;28;20109;-79
2023/02/13 04:40:33;;;;;;;0.60;0.60;;;;;;;;;;5048485;28;20254;-78
2023/02/13 04:42:59;;;;;;;1.25;0.90;;;;;;;;;;5051411;28;20083;-78
2023/02/13 04:45:25;;;;;;;0.65;0.50;;;;;;;;;;5053729;28;20060;-78
2023/02/13 04:47:52;;;;;;;3.47;0.60;;;;;;;;;;5043354;28;20058;-78
2023/02/13 04:50:18;;;;;;;0.50;0.50;;;;;;;;;;5046859;28;20069;-78
2023/02/13 04:52:44;;;;;;;0.60;0.50;;;;;;;;;;5047198;28;20052;-78
2023/02/13 04:55:10;;;;;;;2.45;0.70;;;;;;;;;;5057087;28;20028;-78
2023/02/13 04:57:36;;;;;;;0.40;0.40;;;;;;;;;;5050737;28;20434;-79
2023/02/13 05:00:04;;;;;;;1.08;0.60;;;;;;;;;;5046631;28;20082;-78
2023/02/13 05:02:30;;;;;;;1.38;0.68;;;;;;;;;;5043522;28;20056;-78
2023/02/13 05:04:56;;;;;;;0.52;0.50;;;;;;;;;;5044586;28;20025;-78
2023/02/13 05:07:22;;;;;;;0.75;0.60;;;;;;;;;;5047210;28;20029;-78
2023/02/13 05:09:48;;;;;;;1.15;0.43;;;;;;;;;;5046864;28;20094;-78
2023/02/13 05:12:14;;;;;;;1.08;0.80;;;;;;;;;;5046564;28;20032;-79
2023/02/13 05:14:40;;;;;;;1.15;0.70;;;;;;;;;;5046339;28;20025;-79
2023/02/13 05:17:06;;;;;;;1.13;0.80;;;;;;;;;;5048774;28;20281;-79
2023/02/13 05:19:32;;;;;;;0.90;0.70;;;;;;;;;;5052567;28;20029;-79
2023/02/13 05:24:48;;;;;;;0.65;0.60;;;;;;;;;;5047418;28;20460;-78
2023/02/13 05:27:14;;;;;;;;;;;;;;;;;;5046514;28;20033;-79
2023/02/13 05:29:40;;;;;;;0.85;0.60;;;;;;;;;;5047610;28;20003;-78
2023/02/13 05:32:06;;;;;;;0.60;0.60;;;;;;;;;;5059000;28;20033;-78
2023/02/13 05:34:32;;;;;;;0.80;0.80;;;;;;;;;;5051865;28;20063;-78
2023/02/13 05:36:59;;;;;;;0.98;0.50;;;;;;;;;;5054390;28;20028;-78
2023/02/13 05:39:25;;;;;;;0.55;0.55;;;;;;;;;;5050393;28;20058;-78
2023/02/13 05:41:51;;;;;;;0.80;0.70;;;;;;;;;;5055039;28;20512;-78
2023/02/13 05:44:17;;;;;;;0.60;0.50;;;;;;;;;;5050123;28;20469;-76
2023/02/13 05:46:43;;;;;;;0.60;0.60;;;;;;;;;;5046846;28;20037;-75
2023/02/13 05:52:00;;;;;;;1.60;0.60;;;;;;;;;;5042394;28;20044;-78
2023/02/13 05:54:26;;;;;;;1.30;0.70;;;;;;;;;;5053844;28;20039;-78
2023/02/13 05:56:52;;;;;;;0.70;0.70;;;;;;;;;;5044248;28;20385;-78
2023/02/13 05:59:27;;;;;;;0.90;0.68;;;;;;;;;;5047574;28;20468;-78
2023/02/13 06:01:53;;;;;;;1.17;0.70;;;;;;;;;;5051437;28;20116;-78
2023/02/13 06:04:19;;;;;;;0.88;0.57;;;;;;;;;;5047545;28;20382;-78
2023/02/13 06:06:45;;;;;;;0.90;0.68;;;;;;;;;;5050906;28;20100;-78
2023/02/13 06:09:11;;;;;;;0.85;0.55;;;;;;;;;;5047452;28;20492;-78
2023/02/13 06:11:37;;;;;;;0.60;0.55;;;;;;;;;;5041052;28;20125;-78
2023/02/13 06:14:03;;;;;;;0.60;0.60;;;;;;;;;;5049757;28;20043;-78
2023/02/13 06:16:30;;;;;;;0.82;0.80;;;;;;;;;;5044678;28;20025;-78
2023/02/13 06:18:56;;;;;;;1.05;0.90;;;;;;;;;;5049481;28;20111;-78
2023/02/13 06:21:22;;;;;;;1.88;1.20;;;;;;;;;;5054603;28;20035;-78
2023/02/13 06:23:48;;;;;;;0.75;0.73;;;;;;;;;;5065263;28;20388;-78
2023/02/13 06:26:14;;;;;;;2.90;0.60;;;;;;;;;;5047877;28;20032;-78
2023/02/13 06:28:40;;;;;;;1.20;0.77;;;;;;;;;;5046484;28;20040;-78
2023/02/13 06:31:06;;;;;;;1.67;0.68;;;;;;;;;;5044419;28;20040;-78
2023/02/13 06:33:31;;;;;;;0.55;0.47;;;;;;;;;;5046355;28;20029;-77
2023/02/13 06:35:57;;;;;;;0.70;0.70;;;;;;;;;;5044655;28;20438;-77
2023/02/13 06:38:23;;;;;;;1.65;0.93;;;;;;;;;;5042756;28;20082;-79
2023/02/13 06:40:50;;;;;;;0.57;0.57;;;;;;;;;;5045113;28;20047;-78
2023/02/13 06:43:16;;;;;;;0.50;0.50;;;;;;;;;;5051659;28;20075;-77
2023/02/13 06:45:43;;;;;;;1.00;0.70;;;;;;;;;;5053640;28;20516;-79
2023/02/13 06:48:08;;;;;;;0.88;0.57;;;;;;;;;;5043856;28;20052;-78
2023/02/13 06:50:35;;;;;;;0.82;0.60;;;;;;;;;;5045134;28;20033;-78
2023/02/13 06:53:01;;;;;;;1.13;1.00;;;;;;;;;;5046434;28;20116;-78
2023/02/13 06:55:27;;;;;;;0.77;0.63;;;;;;;;;;5046467;28;20025;-78
2023/02/13 06:57:53;;;;;;;0.60;0.60;;;;;;;;;;5049779;28;20025;-78
2023/02/13 07:00:19;;;;;;;2.13;0.80;;;;;;;;;;5051545;28;20017;-77
2023/02/13 07:02:46;;;;;;;0.80;0.77;;;;;;;;;;5046993;28;20125;-78
2023/02/13 07:05:12;;;;;;;0.65;0.57;;;;;;;;;;5046591;28;20029;-77
2023/02/13 07:07:39;;;;;;;1.90;0.90;;;;;;;;;;5053448;28;20251;-77
2023/02/13 07:10:06;;;;;;;0.50;0.45;;;;;;;;;;5055204;28;20040;-77
2023/02/13 07:12:32;;;;;;;1.50;0.85;;;;;;;;;;5053160;28;20021;-77
2023/02/13 07:14:59;;;;;;;0.60;0.60;;;;;;;;;;5048423;28;20017;-79
2023/02/13 07:17:31;;;;;;;1.05;0.75;;;;;;;;;;5046190;28;20025;-77
2023/02/13 07:20:05;;;;;;;0.75;0.60;;;;;;;;;;5042591;28;20536;-77
2023/02/13 07:22:32;;;;;;;0.45;0.45;;;;;;;;;;5038555;28;20041;-77
2023/02/13 07:24:59;;;;;;;1.45;1.05;;;;;;;;;;5053618;28;20074;-77
2023/02/13 07:27:28;;;;;;;0.57;0.57;;;;;;;;;;5053501;28;20029;-77
2023/02/13 07:29:54;;;;;;;0.90;0.70;;;;;;;;;;5049558;28;20024;-77
2023/02/13 07:32:20;;;;;;;2.35;0.70;;;;;;;;;;5045226;28;20484;-77
2023/02/13 07:34:46;;;;;;;1.23;0.90;;;;;;;;;;5049371;28;20013;-77
2023/02/13 07:37:11;;;;;;;1.55;1.00;;;;;;;;;;5058010;28;20020;-77
2023/02/13 07:39:38;;;;;;;0.98;0.73;;;;;;;;;;5051281;28;20024;-77
2023/02/13 07:42:04;;;;;;;0.90;0.80;;;;;;;;;;5048847;28;20052;-77
2023/02/13 07:44:30;;;;;;;1.02;0.73;;;;;;;;;;5051159;28;20120;-77
2023/02/13 07:46:56;;;;;;;1.73;0.90;;;;;;;;;;5051909;28;20033;-77
2023/02/13 07:49:22;;;;;;;1.45;0.73;;;;;;;;;;5052699;28;20017;-77
2023/02/13 07:51:48;;;;;;;1.17;0.77;;;;;;;;;;5049275;28;20029;-77
2023/02/13 07:54:14;;;;;;;2.20;1.08;;;;;;;;;;5045365;28;20040;-77
2023/02/13 07:56:40;;;;;;;1.42;1.10;;;;;;;;;;5050564;28;20378;-77
2023/02/13 07:59:06;;;;;;;1.15;0.70;;;;;;;;;;5050109;28;20095;-77
2023/02/13 08:01:32;;;;;;;0.85;0.75;;;;;;;;;;5049929;28;20040;-77
2023/02/13 08:03:58;;;;;;;0.95;0.75;;;;;;;;;;5049002;28;20070;-77
2023/02/13 08:06:24;;;;;;;2.35;1.10;;;;;;;;;;5051230;28;20044;-77
2023/02/13 08:11:52;;;;;;;1.73;0.95;;;;;;;;;;5046873;28;20040;-77
2023/02/13 08:11:54;;;;;;;1.10;1.00;;;;;;;;;;5055750;28;20040;-77
2023/02/13 08:14:21;;;;;;;0.70;0.52;;;;;;;;;;5050268;28;20032;-77
2023/02/13 08:16:47;;;;;;;0.90;0.65;;;;;;;;;;5060847;28;20093;-77
2023/02/13 08:19:13;;;;;;;2.08;0.65;;;;;;;;;;5050063;28;20059;-78
2023/02/13 08:21:39;;;;;;;2.38;1.05;;;;;;;;;;5053510;28;20501;-81
2023/02/13 08:24:05;;;;;;;2.30;1.05;;;;;;;;;;5049438;28;20614;-76
2023/02/13 08:26:32;;;;;;;1.77;1.35;;;;;;;;;;5046878;28;20067;-77
2023/02/13 08:28:58;;;;;;;1.25;0.82;;;;;;;;;;5050749;28;20082;-76
2023/02/13 08:31:24;;;;;;;0.95;0.77;;;;;;;;;;5053905;28;20040;-76
2023/02/13 08:33:50;;;;;;;2.00;1.02;;;;;;;;;;5045389;28;20086;-80
2023/02/13 08:36:18;;;;;;;1.90;1.15;;;;;;;;;;5069215;28;20028;-80
2023/02/13 08:38:46;;;;;;;0.80;0.70;;;;;;;;;;5067058;28;20108;-80
2023/02/13 08:41:12;;;;;;;2.00;1.10;;;;;;;;;;5071906;28;20135;-80
2023/02/13 08:43:38;;;;;;;2.35;1.00;;;;;;;;;;5071113;28;20035;-80
2023/02/13 08:46:04;;;;;;;1.73;0.90;;;;;;;;;;5065215;28;20387;-80
2023/02/13 08:48:29;;;;;;;2.08;1.00;;;;;;;;;;5073387;28;20107;-80
2023/02/13 08:50:55;;;;;;;2.42;1.15;;;;;;;;;;5065247;28;20067;-80
2023/02/13 08:53:21;;;;;;;1.40;1.20;;;;;;;;;;5072815;28;20040;-80
2023/02/13 08:55:54;;;;;;;3.13;1.25;;;;;;;;;;5073957;28;20027;-81
2023/02/13 08:58:20;;;;;;;2.05;1.27;;;;;;;;;;5071931;28;20093;-80
2023/02/13 09:00:46;;;;;;;1.55;1.25;;;;;;;;;;5059752;28;20492;-81
2023/02/13 09:03:12;;;;;;;1.42;1.02;;;;;;;;;;5064269;28;20021;-79
2023/02/13 09:05:41;;;;;;;1.30;0.90;;;;;;;;;;5070676;28;20552;-83
2023/02/13 09:08:10;;;;;;;2.17;1.23;;;;;;;;;;5073550;28;20029;-78
2023/02/13 09:10:36;;;;;;;1.55;0.90;;;;;;;;;;5067414;28;20028;-78
2023/02/13 09:13:02;;;;;;;1.70;0.95;;;;;;;;;;5071621;28;20612;-80
2023/02/13 09:15:28;;;;;;;2.15;1.13;;;;;;;;;;5070582;28;20020;-74
2023/02/13 09:17:54;;;;;;;1.15;1.05;;;;;;;;;;5062089;28;20036;-84
2023/02/13 09:20:20;;;;;;;2.13;1.13;;;;;;;;;;5051414;28;20052;-79
2023/02/13 09:22:46;;;;;;;1.23;1.10;;;;;;;;;;5061526;28;20036;-82
2023/02/13 09:25:12;;;;;;;8.27;2.45;;;;;;;;;;5057199;28;20036;-84
2023/02/13 09:27:38;;;;;;;2.25;1.20;;;;;;;;;;5047896;28;20534;-83
2023/02/13 09:30:05;;;;;;;1.23;0.85;;;;;;;;;;5061029;28;20376;-84
2023/02/13 09:32:32;;;;;;;1.08;0.95;;;;;;;;;;5048930;28;20036;-83
2023/02/13 09:34:59;;;;;;;1.85;1.30;;;;;;;;;;5055666;28;20580;-84
2023/02/13 09:37:25;;;;;;;1.50;1.15;;;;;;;;;;5060160;28;20031;-84
2023/02/13 09:39:51;;;;;;;2.65;1.40;;;;;;;;;;5061304;28;20669;-84
2023/02/13 09:42:25;;;;;;;1.67;1.25;;;;;;;;;;5061072;28;20056;-82
2023/02/13 09:44:54;;;;;;;3.20;1.52;;;;;;;;;;5064098;28;20061;-81
2023/02/13 09:47:40;;;;;;;1.52;1.17;;;;;;;;;;5059295;28;20041;-81
2023/02/13 09:50:15;;;;;;;2.55;1.42;;;;;;;;;;5066648;28;20119;-82
2023/02/13 09:52:43;;;;;;;2.00;1.38;;;;;;;;;;5055639;28;20054;-80
2023/02/13 09:55:14;;;;;;;1.60;1.40;;;;;;;;;;5004277;28;20097;-81
2023/02/13 09:57:58;;;;;;;1.92;1.10;;;;;;;;;;5054717;28;20036;-81
2023/02/13 10:00:49;;;;;;;1.92;1.45;;;;;;;;;;5052146;28;20522;-81
2023/02/13 10:03:15;;;;;;;2.20;1.45;;;;;;;;;;5051340;28;20078;-76
2023/02/13 10:05:55;;;;;;;2.80;1.30;;;;;;;;;;5054213;28;20554;-76
2023/02/13 10:08:27;;;;;;;1.45;1.17;;;;;;;;;;5073358;28;20033;-76
2023/02/13 10:11:07;;;;;;;1.75;1.05;;;;;;;;;;5070923;28;20033;-76
2023/02/13 10:13:53;;;;;;;2.28;1.30;;;;;;;;;;5068093;28;20024;-77
2023/02/13 10:16:21;;;;;;;2.55;1.30;;;;;;;;;;5062056;28;20444;-76
2023/02/13 10:18:50;;;;;;;1.88;1.20;;;;;;;;;;5072751;28;20043;-77
2023/02/13 10:21:19;;;;;;;1.50;1.20;;;;;;;;;;5070164;28;20040;-78
2023/02/13 10:23:49;;;;;;;2.13;1.27;;;;;;;;;;5068828;28;20031;-76
2023/02/13 10:26:20;;;;;;;5.95;1.17;;;;;;;;;;5068466;28;20028;-76
2023/02/13 10:30:03;;;;;;;2.55;1.42;;;;;;;;;;5074450;28;20388;-76
2023/02/13 10:31:37;;;;;;;3.55;1.20;;;;;;;;;;5071357;28;20059;-76
2023/02/13 10:34:04;;;;;;;4.43;1.10;;;;;;;;;;5069658;28;20037;-78
2023/02/13 10:36:33;;;;;;;1.83;1.15;;;;;;;;;;5066747;28;20663;-78
2023/02/13 10:39:15;;;;;;;4.10;1.20;;;;;;;;;;5060036;28;20040;-75
2023/02/13 10:41:56;;;;;;;1.73;1.10;;;;;;;;;;5059583;28;20048;-75
2023/02/13 10:44:28;;;;;;;1.67;1.17;;;;;;;;;;5070324;28;20036;-77
2023/02/13 10:47:12;;;;;;;9.18;1.52;;;;;;;;;;5065163;28;20073;-76
2023/02/13 10:49:38;;;;;;;2.08;1.35;;;;;;;;;;5059824;28;20554;-76
2023/02/13 10:52:23;;;;;;;2.72;1.23;;;;;;;;;;5063680;28;20032;-77
2023/02/13 10:54:49;;;;;;;1.23;0.90;;;;;;;;;;5043448;28;20028;-76
2023/02/13 10:57:18;;;;;;;2.05;1.33;;;;;;;;;;5051840;28;20443;-76
2023/02/13 10:59:50;;;;;;;0.85;0.80;;;;;;;;;;5045092;28;20468;-76
2023/02/13 11:02:27;;;;;;;1.95;1.05;;;;;;;;;;5043874;28;20033;-75
2023/02/13 11:05:01;;;;;;;1.83;1.13;;;;;;;;;;5043208;28;20032;-75
2023/02/13 11:07:27;;;;;;;1.27;1.08;;;;;;;;;;5043992;28;20481;-76
2023/02/13 11:09:55;;;;;;;2.00;1.10;;;;;;;;;;5046082;28;20037;-75
2023/02/13 11:12:29;;;;;;;1.42;1.33;;;;;;;;;;5047641;28;20082;-77
2023/02/13 11:14:57;;;;;;;2.15;1.45;;;;;;;;;;5044526;28;20020;-76
2023/02/13 11:17:23;;;;;;;1.27;1.00;;;;;;;;;;5050435;28;20033;-75
2023/02/13 11:19:51;;;;;;;0.70;0.70;;;;;;;;;;5051035;28;20036;-76
2023/02/13 11:22:38;;;;;;;1.48;1.17;;;;;;;;;;5047823;28;20025;-77
2023/02/13 11:25:06;;;;;;;1.10;0.88;;;;;;;;;;5062255;28;20511;-76
2023/02/13 11:27:37;;;;;;;2.03;1.20;;;;;;;;;;5047240;28;20036;-76
2023/02/13 11:30:05;;;;;;;2.17;1.00;;;;;;;;;;5049411;28;20127;-76
2023/02/13 11:32:33;;;;;;;1.85;1.10;;;;;;;;;;5046170;28;20033;-76
2023/02/13 11:35:16;;;;;;;1.10;1.00;;;;;;;;;;5046695;28;20428;-76
2023/02/13 11:37:42;;;;;;;4.30;1.13;;;;;;;;;;5065570;28;20021;-76
2023/02/13 11:40:40;;;;;;;2.05;1.08;;;;;;;;;;5057109;28;20082;-76
2023/02/13 11:43:07;;;;;;;1.48;1.05;;;;;;;;;;5054152;28;20090;-77
2023/02/13 11:45:33;;;;;;;1.63;1.23;;;;;;;;;;5051688;28;20024;-76
2023/02/13 11:47:59;;;;;;;1.80;1.10;;;;;;;;;;5066867;28;20028;-76
2023/02/13 11:50:31;;;;;;;1.95;1.10;;;;;;;;;;5062993;28;20029;-76
2023/02/13 11:53:24;;;;;;;2.25;0.90;;;;;;;;;;5047603;28;20021;-76
2023/02/13 11:56:20;;;;;;;0.85;0.73;;;;;;;;;;5061971;28;20397;-76
2023/02/13 11:58:45;;;;;;;1.90;1.10;;;;;;;;;;5040696;28;20078;-75
2023/02/13 12:01:30;;;;;;;2.42;1.27;;;;;;;;;;5065254;28;20145;-76
2023/02/13 12:04:05;;;;;;;2.90;1.83;;;;;;;;;;5061490;28;20107;-76
2023/02/13 12:06:38;;;;;;;1.27;1.00;;;;;;;;;;5050278;28;20017;-76
2023/02/13 12:09:04;;;;;;;1.30;1.15;;;;;;;;;;5050521;28;20021;-75
2023/02/13 12:11:36;;;;;;;3.40;1.13;;;;;;;;;;5050679;28;20087;-76
2023/02/13 12:14:02;;;;;;;1.77;0.93;;;;;;;;;;5059731;28;20032;-76
2023/02/13 12:16:28;;;;;;;2.30;0.98;;;;;;;;;;5051777;28;20043;-76
2023/02/13 12:18:56;;;;;;;1.42;0.77;;;;;;;;;;5052333;28;20032;-76
2023/02/13 12:21:37;;;;;;;2.40;1.13;;;;;;;;;;5050149;28;20037;-76
2023/02/13 12:24:03;;;;;;;2.55;1.05;;;;;;;;;;5055093;28;20542;-76
2023/02/13 12:26:43;;;;;;;1.27;1.17;;;;;;;;;;5053839;28;20501;-76
2023/02/13 12:29:15;;;;;;;2.78;1.38;;;;;;;;;;5057207;28;20046;-76
2023/02/13 12:31:50;;;;;;;1.63;1.20;;;;;;;;;;5064866;28;20081;-76
2023/02/13 12:34:25;;;;;;;1.95;1.27;;;;;;;;;;5065265;28;20028;-75
2023/02/13 12:37:13;;;;;;;1.48;1.10;;;;;;;;;;5053272;28;20024;-75
2023/02/13 12:39:57;;;;;;;1.10;0.85;;;;;;;;;;5067379;28;20031;-76
2023/02/13 12:42:39;;;;;;;1.20;0.85;;;;;;;;;;5058642;28;20387;-76
2023/02/13 12:45:10;;;;;;;4.25;0.98;;;;;;;;;;5060350;28;20036;-76
2023/02/13 12:47:48;;;;;;;0.82;0.80;;;;;;;;;;5068901;28;20432;-76
2023/02/13 12:50:32;;;;;;;1.52;1.10;;;;;;;;;;5069612;28;20129;-76
2023/02/13 12:53:18;;;;;;;3.22;1.10;;;;;;;;;;5069500;28;20119;-76
2023/02/13 12:55:44;;;;;;;1.88;0.90;;;;;;;;;;5063507;28;20074;-76
2023/02/13 12:58:29;;;;;;;1.63;0.95;;;;;;;;;;5051345;28;20040;-76
2023/02/13 13:01:14;;;;;;;1.63;1.23;;;;;;;;;;5049292;28;20062;-76
2023/02/13 13:03:40;;;;;;;1.50;0.98;;;;;;;;;;5055887;28;20032;-76
2023/02/13 13:06:28;;;;;;;2.25;1.00;;;;;;;;;;5048597;28;20032;-76
2023/02/13 13:09:12;;;;;;;1.48;1.25;;;;;;;;;;5049601;28;20137;-76
2023/02/13 13:11:57;;;;;;;1.48;1.10;;;;;;;;;;5057686;28;20035;-76
2023/02/13 13:14:29;;;;;;;0.98;0.95;;;;;;;;;;5063969;28;20070;-76
2023/02/13 13:17:06;;;;;;;1.48;1.00;;;;;;;;;;5060222;28;20485;-76
2023/02/13 13:19:37;;;;;;;1.00;0.90;;;;;;;;;;5069477;28;20040;-76
2023/02/13 13:22:25;;;;;;;1.45;1.10;;;;;;;;;;5062932;28;20094;-76
2023/02/13 13:24:54;;;;;;;0.90;0.70;;;;;;;;;;5049196;28;20099;-76
2023/02/13 13:27:23;;;;;;;1.02;0.93;;;;;;;;;;5055623;28;20037;-76
2023/02/13 13:29:58;;;;;;;0.85;0.85;;;;;;;;;;5048610;28;20405;-75
2023/02/13 13:32:24;;;;;;;1.55;0.90;;;;;;;;;;5050172;28;20058;-78
2023/02/13 13:34:50;;;;;;;1.63;0.93;;;;;;;;;;5052450;28;20032;-75
2023/02/13 13:37:16;;;;;;;1.98;1.10;;;;;;;;;;5049179;28;20060;-75
2023/02/13 13:39:51;;;;;;;1.05;0.90;;;;;;;;;;5048882;28;20064;-76
2023/02/13 13:42:24;;;;;;;1.30;1.10;;;;;;;;;;5065723;28;20049;-76
2023/02/13 13:45:08;;;;;;;1.15;1.05;;;;;;;;;;5049860;28;20029;-76
2023/02/13 13:47:40;;;;;;;1.20;1.10;;;;;;;;;;5068936;28;20021;-76
2023/02/13 13:50:17;;;;;;;2.55;1.10;;;;;;;;;;5066547;28;20035;-76
2023/02/13 13:53:03;;;;;;;1.55;1.20;;;;;;;;;;5059844;28;20033;-76
2023/02/13 13:55:47;;;;;;;1.83;1.10;;;;;;;;;;5049264;28;20029;-76
2023/02/13 13:58:32;;;;;;;1.05;0.95;;;;;;;;;;5048544;28;20044;-75
2023/02/13 14:01:21;;;;;;;1.95;1.10;;;;;;;;;;5053282;28;20039;-75
2023/02/13 14:03:48;;;;;;;1.42;0.98;;;;;;;;;;5048677;28;20036;-76
2023/02/13 14:06:21;;;;;;;0.90;0.80;;;;;;;;;;5048452;28;20098;-75
2023/02/13 14:08:48;;;;;;;2.05;1.10;;;;;;;;;;5048137;28;20512;-76
2023/02/13 14:11:30;;;;;;;1.00;0.80;;;;;;;;;;5050874;28;20025;-76
2023/02/13 14:13:56;;;;;;;1.48;1.10;;;;;;;;;;5058300;28;20032;-76
2023/02/13 14:16:39;;;;;;;1.85;1.02;;;;;;;;;;5068181;28;20024;-77
2023/02/13 14:19:06;;;;;;;0.95;0.85;;;;;;;;;;5057141;28;20043;-76
2023/02/13 14:21:34;;;;;;;1.00;0.90;;;;;;;;;;5048312;28;20021;-76
2023/02/13 14:24:02;;;;;;;1.20;0.80;;;;;;;;;;5048674;28;20033;-76
2023/02/13 14:26:36;;;;;;;0.98;0.85;;;;;;;;;;5048403;28;20055;-76
2023/02/13 14:29:10;;;;;;;3.40;0.98;;;;;;;;;;5057941;28;20033;-76
2023/02/13 14:31:41;;;;;;;1.17;0.95;;;;;;;;;;5068067;28;20115;-76
2023/02/13 14:34:10;;;;;;;1.73;1.10;;;;;;;;;;5066131;28;20488;-75
2023/02/13 14:36:38;;;;;;;2.42;1.08;;;;;;;;;;5067044;28;20394;-75
2023/02/13 14:39:16;;;;;;;1.42;0.90;;;;;;;;;;5059431;28;20032;-76
2023/02/13 14:41:52;;;;;;;1.35;0.88;;;;;;;;;;5061406;28;20045;-75
2023/02/13 14:44:23;;;;;;;2.05;1.15;;;;;;;;;;5060780;28;20557;-76
2023/02/13 14:46:52;;;;;;;1.50;1.00;;;;;;;;;;5067839;28;20396;-76
2023/02/13 14:49:24;;;;;;;2.25;1.23;;;;;;;;;;5067930;28;20267;-75
2023/02/13 14:51:55;;;;;;;1.83;1.20;;;;;;;;;;5067885;28;20036;-75
2023/02/13 14:54:21;;;;;;;;;;;;;;;;;;5063592;28;20089;-76
2023/02/13 14:56:48;;;;;;;1.38;0.82;;;;;;;;;;5049002;28;20028;-76
2023/02/13 14:59:16;;;;;;;1.33;1.05;;;;;;;;;;5063045;28;20024;-76
2023/02/13 15:01:53;;;;;;;1.13;0.90;;;;;;;;;;5062681;28;20389;-76
2023/02/13 15:04:19;;;;;;;1.55;0.90;;;;;;;;;;5070769;28;20452;-76
2023/02/13 15:06:46;;;;;;;2.42;1.30;;;;;;;;;;5050536;28;20060;-76
2023/02/13 15:09:19;;;;;;;1.15;0.90;;;;;;;;;;5057872;28;20032;-77
2023/02/13 15:11:45;;;;;;;1.42;1.00;;;;;;;;;;5054217;28;20037;-76
2023/02/13 15:14:21;;;;;;;1.67;0.88;;;;;;;;;;5048562;28;20021;-75
2023/02/13 15:16:59;;;;;;;1.50;1.02;;;;;;;;;;5055114;28;20051;-78
2023/02/13 15:19:25;;;;;;;1.75;1.13;;;;;;;;;;5047602;28;20029;-75
2023/02/13 15:21:56;;;;;;;1.25;0.95;;;;;;;;;;5048199;28;20052;-77
2023/02/13 15:24:23;;;;;;;1.60;1.10;;;;;;;;;;5047488;28;20473;-76
2023/02/13 15:26:50;;;;;;;3.88;1.05;;;;;;;;;;5059246;28;20051;-76
2023/02/13 15:29:18;;;;;;;2.42;1.20;;;;;;;;;;5070724;28;20086;-75
2023/02/13 15:31:44;;;;;;;2.05;0.93;;;;;;;;;;5062970;28;20024;-79
2023/02/13 15:34:24;;;;;;;1.30;0.90;;;;;;;;;;5051097;28;20533;-76
2023/02/13 15:36:51;;;;;;;2.27;0.97;;;;;;;;;;5051264;28;20048;-76
2023/02/13 15:39:18;;;;;;;1.50;0.95;;;;;;;;;;5051158;28;20324;-78
2023/02/13 15:41:47;;;;;;;0.85;0.60;;;;;;;;;;5062986;28;20051;-75
2023/02/13 15:44:17;;;;;;;1.48;1.00;;;;;;;;;;5059520;28;20029;-78
2023/02/13 15:46:44;;;;;;;0.60;0.57;;;;;;;;;;5052823;28;20040;-75